Humidity-temperature Sensor

Selected Measurement Type: Relative Humidity

 
Relative Humidity [%]     6 entries per hour
Showing data from 9/13/2019 (00:00:00 Z) to 9/12/2019 (00:01:00 Z)
Previous Next [ Day | 3-Days | 7-Days ]
First Last
Prev [ Day | 3-Days | 7-Days ] Next
First Last

Start Time:     :
End Time:     :     
Time (in GMT) :00 :50 :40 :30 :20 :10
Previous Next [ Day | 3-Days | 7-Days ]
First Last
Prev [ Day | 3-Days | 7-Days ] Next
First Last


123 => good data
MM => data is determined as missing
-- => data not received/configured
Back to Top Back to Top
9/13/2019 00:00 to 23:10 84.94 84.71 86.29 86.51 85.43 85.28
9/12/2019 23:00 to 22:10 85.20 86.74 85.51 84.90 85.35 85.28
9/12/2019 22:00 to 21:10 85.14 84.26 84.40 84.03 85.06 85.47
9/12/2019 21:00 to 20:10 84.77 85.22 84.12 83.83 83.60 84.12
9/12/2019 20:00 to 19:10 84.24 84.46 85.12 85.98 84.79 85.04
9/12/2019 19:00 to 18:10 86.04 86.10 88.72 89.01 89.28 89.03
9/12/2019 18:00 to 17:10 88.75 88.17 88.42 88.66 90.53 89.95
9/12/2019 17:00 to 16:10 90.69 91.76 93.86 92.35 92.49 88.72
9/12/2019 16:00 to 15:10 88.95 90.44 89.50 88.21 87.37 88.75
9/12/2019 15:00 to 14:10 91.06 93.43 92.96 92.78 90.14 91.00
9/12/2019 14:00 to 13:10 92.00 91.92 91.20 91.39 93.04 89.65
9/12/2019 13:00 to 12:10 89.58 90.16 90.06 90.16 90.16 91.22
9/12/2019 12:00 to 11:10 93.04 93.72 94.31 94.07 94.21 95.38
9/12/2019 11:00 to 10:10 95.85 96.16 95.79 96.26 96.46 96.18
9/12/2019 10:00 to 9:10 95.30 94.64 95.03 95.01 95.52 95.91
9/12/2019 09:00 to 8:10 95.11 94.70 93.82 92.76 90.28 90.94
9/12/2019 08:00 to 7:10 91.08 91.84 91.67 92.35 93.64 93.97
9/12/2019 07:00 to 6:10 93.99 94.25 95.56 95.60 95.65 95.07
9/12/2019 06:00 to 5:10 93.95 93.99 95.11 95.52 94.09 92.23
9/12/2019 05:00 to 4:10 93.64 94.13 94.56 94.70 93.48 91.73
9/12/2019 04:00 to 3:10 89.95 88.85 88.25 89.67 90.42 89.24
9/12/2019 03:00 to 2:10 86.51 85.78 85.57 87.13 85.94 85.02
9/12/2019 02:00 to 1:10 84.40 84.75 85.02 86.14 85.59 85.63
9/12/2019 01:00 to 0:10 85.96 86.53 87.39 87.56 86.92 86.86